sensor_id;sensor_type;location;lat;lon;timestamp;P1;durP1;ratioP1;P2;durP2;ratioP2
76863;SDS011;65834;52.364;9.754;2023-04-23T00:00:37;10.60;;;4.05;;
76863;SDS011;65834;52.364;9.754;2023-04-23T00:03:08;11.10;;;3.80;;
76863;SDS011;65834;52.364;9.754;2023-04-23T00:05:41;9.20;;;3.80;;
76863;SDS011;65834;52.364;9.754;2023-04-23T00:08:13;9.50;;;4.10;;
76863;SDS011;65834;52.364;9.754;2023-04-23T00:10:46;10.35;;;4.28;;
76863;SDS011;65834;52.364;9.754;2023-04-23T00:13:19;9.43;;;4.30;;
76863;SDS011;65834;52.364;9.754;2023-04-23T00:15:49;10.10;;;4.38;;
76863;SDS011;65834;52.364;9.754;2023-04-23T00:18:19;11.68;;;3.85;;
76863;SDS011;65834;52.364;9.754;2023-04-23T00:20:49;8.80;;;3.58;;
76863;SDS011;65834;52.364;9.754;2023-04-23T00:23:18;9.18;;;3.97;;
76863;SDS011;65834;52.364;9.754;2023-04-23T00:25:48;9.88;;;3.80;;
76863;SDS011;65834;52.364;9.754;2023-04-23T00:28:20;8.32;;;3.75;;
76863;SDS011;65834;52.364;9.754;2023-04-23T00:30:50;10.05;;;3.97;;
76863;SDS011;65834;52.364;9.754;2023-04-23T00:33:19;7.95;;;3.35;;
76863;SDS011;65834;52.364;9.754;2023-04-23T00:35:49;9.38;;;3.70;;
76863;SDS011;65834;52.364;9.754;2023-04-23T00:38:19;9.00;;;3.58;;
76863;SDS011;65834;52.364;9.754;2023-04-23T00:40:49;9.15;;;3.63;;
76863;SDS011;65834;52.364;9.754;2023-04-23T00:43:21;8.52;;;3.90;;
76863;SDS011;65834;52.364;9.754;2023-04-23T00:45:51;8.70;;;3.63;;
76863;SDS011;65834;52.364;9.754;2023-04-23T00:48:20;9.38;;;3.88;;
76863;SDS011;65834;52.364;9.754;2023-04-23T00:50:56;8.65;;;3.85;;
76863;SDS011;65834;52.364;9.754;2023-04-23T00:53:26;9.43;;;3.75;;
76863;SDS011;65834;52.364;9.754;2023-04-23T00:55:56;8.68;;;3.70;;
76863;SDS011;65834;52.364;9.754;2023-04-23T00:58:29;8.20;;;3.63;;
76863;SDS011;65834;52.364;9.754;2023-04-23T01:03:30;10.73;;;3.90;;
76863;SDS011;65834;52.364;9.754;2023-04-23T01:06:01;9.18;;;3.97;;
76863;SDS011;65834;52.364;9.754;2023-04-23T01:08:32;7.20;;;3.92;;
76863;SDS011;65834;52.364;9.754;2023-04-23T01:11:03;10.98;;;4.07;;
76863;SDS011;65834;52.364;9.754;2023-04-23T01:13:35;8.45;;;4.05;;
76863;SDS011;65834;52.364;9.754;2023-04-23T01:16:05;10.23;;;4.20;;
76863;SDS011;65834;52.364;9.754;2023-04-23T01:18:36;8.65;;;4.00;;
76863;SDS011;65834;52.364;9.754;2023-04-23T01:21:06;10.30;;;3.97;;
76863;SDS011;65834;52.364;9.754;2023-04-23T01:23:41;11.32;;;4.22;;
76863;SDS011;65834;52.364;9.754;2023-04-23T01:26:11;12.55;;;4.82;;
76863;SDS011;65834;52.364;9.754;2023-04-23T01:28:41;12.80;;;5.75;;
76863;SDS011;65834;52.364;9.754;2023-04-23T01:31:12;13.70;;;6.85;;
76863;SDS011;65834;52.364;9.754;2023-04-23T01:33:42;14.98;;;7.78;;
76863;SDS011;65834;52.364;9.754;2023-04-23T01:36:12;13.77;;;7.45;;
76863;SDS011;65834;52.364;9.754;2023-04-23T01:38:45;13.18;;;7.95;;
76863;SDS011;65834;52.364;9.754;2023-04-23T01:41:14;13.98;;;7.50;;
76863;SDS011;65834;52.364;9.754;2023-04-23T01:43:44;15.50;;;7.82;;
76863;SDS011;65834;52.364;9.754;2023-04-23T01:46:15;14.23;;;8.10;;
76863;SDS011;65834;52.364;9.754;2023-04-23T01:48:44;14.63;;;8.23;;
76863;SDS011;65834;52.364;9.754;2023-04-23T01:51:14;14.05;;;8.27;;
76863;SDS011;65834;52.364;9.754;2023-04-23T01:53:47;15.55;;;9.02;;
76863;SDS011;65834;52.364;9.754;2023-04-23T01:56:16;15.75;;;9.02;;
76863;SDS011;65834;52.364;9.754;2023-04-23T01:58:48;15.80;;;9.52;;
76863;SDS011;65834;52.364;9.754;2023-04-23T02:01:18;15.63;;;9.13;;
76863;SDS011;65834;52.364;9.754;2023-04-23T02:03:48;16.67;;;11.30;;
76863;SDS011;65834;52.364;9.754;2023-04-23T02:06:18;17.20;;;10.88;;
76863;SDS011;65834;52.364;9.754;2023-04-23T02:08:51;16.20;;;9.90;;
76863;SDS011;65834;52.364;9.754;2023-04-23T02:11:20;16.50;;;9.73;;
76863;SDS011;65834;52.364;9.754;2023-04-23T02:13:50;17.75;;;12.10;;
76863;SDS011;65834;52.364;9.754;2023-04-23T02:16:20;20.60;;;12.30;;
76863;SDS011;65834;52.364;9.754;2023-04-23T02:18:50;19.93;;;13.20;;
76863;SDS011;65834;52.364;9.754;2023-04-23T02:21:19;19.93;;;11.93;;
76863;SDS011;65834;52.364;9.754;2023-04-23T02:23:52;19.30;;;12.53;;
76863;SDS011;65834;52.364;9.754;2023-04-23T02:28:52;20.17;;;11.87;;
76863;SDS011;65834;52.364;9.754;2023-04-23T02:31:22;21.60;;;13.67;;
76863;SDS011;65834;52.364;9.754;2023-04-23T02:33:53;22.38;;;14.82;;
76863;SDS011;65834;52.364;9.754;2023-04-23T02:36:23;22.07;;;13.70;;
76863;SDS011;65834;52.364;9.754;2023-04-23T02:38:56;21.53;;;14.30;;
76863;SDS011;65834;52.364;9.754;2023-04-23T02:41:26;22.15;;;14.55;;
76863;SDS011;65834;52.364;9.754;2023-04-23T02:43:56;22.70;;;14.47;;
76863;SDS011;65834;52.364;9.754;2023-04-23T02:46:26;23.17;;;14.97;;
76863;SDS011;65834;52.364;9.754;2023-04-23T02:48:57;22.93;;;13.80;;
76863;SDS011;65834;52.364;9.754;2023-04-23T02:51:26;24.13;;;15.80;;
76863;SDS011;65834;52.364;9.754;2023-04-23T02:53:59;25.47;;;15.73;;
76863;SDS011;65834;52.364;9.754;2023-04-23T02:56:29;25.30;;;16.43;;
76863;SDS011;65834;52.364;9.754;2023-04-23T02:58:59;24.93;;;16.37;;
76863;SDS011;65834;52.364;9.754;2023-04-23T03:01:29;25.90;;;16.23;;
76863;SDS011;65834;52.364;9.754;2023-04-23T03:03:59;25.53;;;16.20;;
76863;SDS011;65834;52.364;9.754;2023-04-23T03:06:30;26.13;;;16.83;;
76863;SDS011;65834;52.364;9.754;2023-04-23T03:09:02;25.70;;;16.60;;
76863;SDS011;65834;52.364;9.754;2023-04-23T03:11:33;24.77;;;16.90;;
76863;SDS011;65834;52.364;9.754;2023-04-23T03:14:02;26.77;;;16.30;;
76863;SDS011;65834;52.364;9.754;2023-04-23T03:16:32;25.33;;;15.57;;
76863;SDS011;65834;52.364;9.754;2023-04-23T03:19:02;24.63;;;15.93;;
76863;SDS011;65834;52.364;9.754;2023-04-23T03:21:31;24.20;;;15.47;;
76863;SDS011;65834;52.364;9.754;2023-04-23T03:24:04;24.43;;;15.40;;
76863;SDS011;65834;52.364;9.754;2023-04-23T03:26:33;24.60;;;16.15;;
76863;SDS011;65834;52.364;9.754;2023-04-23T03:29:03;25.20;;;17.37;;
76863;SDS011;65834;52.364;9.754;2023-04-23T03:31:33;24.33;;;16.77;;
76863;SDS011;65834;52.364;9.754;2023-04-23T03:34:03;24.87;;;15.40;;
76863;SDS011;65834;52.364;9.754;2023-04-23T03:36:34;25.00;;;15.83;;
76863;SDS011;65834;52.364;9.754;2023-04-23T03:39:07;24.63;;;16.37;;
76863;SDS011;65834;52.364;9.754;2023-04-23T03:41:48;24.53;;;15.10;;
76863;SDS011;65834;52.364;9.754;2023-04-23T03:44:21;25.93;;;17.00;;
76863;SDS011;65834;52.364;9.754;2023-04-23T03:46:52;25.83;;;16.77;;
76863;SDS011;65834;52.364;9.754;2023-04-23T03:49:21;22.33;;;15.10;;
76863;SDS011;65834;52.364;9.754;2023-04-23T03:51:51;24.10;;;17.00;;
76863;SDS011;65834;52.364;9.754;2023-04-23T03:54:24;25.03;;;16.13;;
76863;SDS011;65834;52.364;9.754;2023-04-23T03:57:07;25.13;;;16.50;;
76863;SDS011;65834;52.364;9.754;2023-04-23T03:59:48;27.77;;;17.97;;
76863;SDS011;65834;52.364;9.754;2023-04-23T04:02:18;29.63;;;19.40;;
76863;SDS011;65834;52.364;9.754;2023-04-23T04:04:51;25.90;;;17.70;;
76863;SDS011;65834;52.364;9.754;2023-04-23T04:07:23;31.00;;;20.57;;
76863;SDS011;65834;52.364;9.754;2023-04-23T04:09:57;29.53;;;18.73;;
76863;SDS011;65834;52.364;9.754;2023-04-23T04:12:28;28.70;;;19.70;;
76863;SDS011;65834;52.364;9.754;2023-04-23T04:14:58;26.83;;;18.77;;
76863;SDS011;65834;52.364;9.754;2023-04-23T04:17:28;28.87;;;17.90;;
76863;SDS011;65834;52.364;9.754;2023-04-23T04:19:58;29.20;;;18.87;;
76863;SDS011;65834;52.364;9.754;2023-04-23T04:22:28;28.40;;;19.77;;
76863;SDS011;65834;52.364;9.754;2023-04-23T04:25:00;32.07;;;20.07;;
76863;SDS011;65834;52.364;9.754;2023-04-23T04:27:30;29.80;;;19.97;;
76863;SDS011;65834;52.364;9.754;2023-04-23T04:30:00;30.33;;;19.00;;
76863;SDS011;65834;52.364;9.754;2023-04-23T04:32:31;32.43;;;20.63;;
76863;SDS011;65834;52.364;9.754;2023-04-23T04:35:01;30.63;;;19.63;;
76863;SDS011;65834;52.364;9.754;2023-04-23T04:37:31;31.10;;;19.77;;
76863;SDS011;65834;52.364;9.754;2023-04-23T04:40:04;30.33;;;19.83;;
76863;SDS011;65834;52.364;9.754;2023-04-23T04:42:36;29.87;;;18.93;;
76863;SDS011;65834;52.364;9.754;2023-04-23T04:45:06;31.97;;;20.27;;
76863;SDS011;65834;52.364;9.754;2023-04-23T04:47:37;30.93;;;19.73;;
76863;SDS011;65834;52.364;9.754;2023-04-23T04:50:07;33.60;;;20.90;;
76863;SDS011;65834;52.364;9.754;2023-04-23T04:52:37;28.70;;;19.50;;
76863;SDS011;65834;52.364;9.754;2023-04-23T04:55:10;30.50;;;18.90;;
76863;SDS011;65834;52.364;9.754;2023-04-23T04:57:39;33.30;;;20.23;;
76863;SDS011;65834;52.364;9.754;2023-04-23T05:00:18;30.90;;;19.80;;
76863;SDS011;65834;52.364;9.754;2023-04-23T05:02:52;30.83;;;19.60;;
76863;SDS011;65834;52.364;9.754;2023-04-23T05:05:22;30.93;;;18.63;;
76863;SDS011;65834;52.364;9.754;2023-04-23T05:07:53;31.60;;;19.20;;
76863;SDS011;65834;52.364;9.754;2023-04-23T05:10:27;32.87;;;18.93;;
76863;SDS011;65834;52.364;9.754;2023-04-23T05:12:57;27.88;;;18.10;;
76863;SDS011;65834;52.364;9.754;2023-04-23T05:15:27;30.20;;;19.10;;
76863;SDS011;65834;52.364;9.754;2023-04-23T05:17:56;30.17;;;18.87;;
76863;SDS011;65834;52.364;9.754;2023-04-23T05:20:26;31.80;;;19.97;;
76863;SDS011;65834;52.364;9.754;2023-04-23T05:22:56;31.73;;;19.97;;
76863;SDS011;65834;52.364;9.754;2023-04-23T05:25:30;31.73;;;19.97;;
76863;SDS011;65834;52.364;9.754;2023-04-23T05:28:01;32.33;;;20.77;;
76863;SDS011;65834;52.364;9.754;2023-04-23T05:30:30;33.00;;;20.17;;
76863;SDS011;65834;52.364;9.754;2023-04-23T05:33:00;32.47;;;20.83;;
76863;SDS011;65834;52.364;9.754;2023-04-23T05:35:29;31.20;;;19.37;;
76863;SDS011;65834;52.364;9.754;2023-04-23T05:37:59;29.97;;;18.90;;
76863;SDS011;65834;52.364;9.754;2023-04-23T05:40:33;31.20;;;20.17;;
76863;SDS011;65834;52.364;9.754;2023-04-23T05:43:02;31.77;;;19.80;;
76863;SDS011;65834;52.364;9.754;2023-04-23T05:45:32;31.20;;;20.30;;
76863;SDS011;65834;52.364;9.754;2023-04-23T05:48:02;29.83;;;18.57;;
76863;SDS011;65834;52.364;9.754;2023-04-23T05:50:31;32.10;;;20.17;;
76863;SDS011;65834;52.364;9.754;2023-04-23T05:53:01;29.90;;;18.97;;
76863;SDS011;65834;52.364;9.754;2023-04-23T05:55:33;34.83;;;21.67;;
76863;SDS011;65834;52.364;9.754;2023-04-23T05:58:03;30.85;;;20.88;;
76863;SDS011;65834;52.364;9.754;2023-04-23T06:00:33;32.90;;;20.27;;
76863;SDS011;65834;52.364;9.754;2023-04-23T06:03:03;32.20;;;20.13;;
76863;SDS011;65834;52.364;9.754;2023-04-23T06:05:32;32.00;;;20.17;;
76863;SDS011;65834;52.364;9.754;2023-04-23T06:08:03;33.37;;;20.20;;
76863;SDS011;65834;52.364;9.754;2023-04-23T06:10:35;33.77;;;21.10;;
76863;SDS011;65834;52.364;9.754;2023-04-23T06:13:05;31.73;;;20.33;;
76863;SDS011;65834;52.364;9.754;2023-04-23T06:15:36;32.73;;;21.40;;
76863;SDS011;65834;52.364;9.754;2023-04-23T06:18:06;32.83;;;20.77;;
76863;SDS011;65834;52.364;9.754;2023-04-23T06:20:36;32.23;;;19.57;;
76863;SDS011;65834;52.364;9.754;2023-04-23T06:23:05;32.63;;;21.07;;
76863;SDS011;65834;52.364;9.754;2023-04-23T06:25:37;29.93;;;18.63;;
76863;SDS011;65834;52.364;9.754;2023-04-23T06:28:07;32.08;;;22.00;;
76863;SDS011;65834;52.364;9.754;2023-04-23T06:30:49;31.38;;;20.83;;
76863;SDS011;65834;52.364;9.754;2023-04-23T06:33:19;30.67;;;18.37;;
76863;SDS011;65834;52.364;9.754;2023-04-23T06:35:49;33.60;;;20.13;;
76863;SDS011;65834;52.364;9.754;2023-04-23T06:38:18;33.70;;;21.50;;
76863;SDS011;65834;52.364;9.754;2023-04-23T06:40:51;31.57;;;20.47;;
76863;SDS011;65834;52.364;9.754;2023-04-23T06:43:21;32.20;;;21.73;;
76863;SDS011;65834;52.364;9.754;2023-04-23T06:46:10;33.30;;;21.43;;
76863;SDS011;65834;52.364;9.754;2023-04-23T06:48:40;32.13;;;20.10;;
76863;SDS011;65834;52.364;9.754;2023-04-23T06:51:09;31.97;;;20.10;;
76863;SDS011;65834;52.364;9.754;2023-04-23T06:53:39;30.57;;;19.63;;
76863;SDS011;65834;52.364;9.754;2023-04-23T06:56:11;29.87;;;19.60;;
76863;SDS011;65834;52.364;9.754;2023-04-23T06:58:41;33.33;;;21.15;;
76863;SDS011;65834;52.364;9.754;2023-04-23T07:01:16;31.43;;;19.63;;
76863;SDS011;65834;52.364;9.754;2023-04-23T07:03:46;33.03;;;20.47;;
76863;SDS011;65834;52.364;9.754;2023-04-23T07:06:20;32.90;;;21.40;;
76863;SDS011;65834;52.364;9.754;2023-04-23T07:08:49;30.67;;;19.67;;
76863;SDS011;65834;52.364;9.754;2023-04-23T07:11:21;31.37;;;20.80;;
76863;SDS011;65834;52.364;9.754;2023-04-23T07:13:52;31.57;;;20.67;;
76863;SDS011;65834;52.364;9.754;2023-04-23T07:16:21;34.10;;;20.60;;
76863;SDS011;65834;52.364;9.754;2023-04-23T07:18:51;30.93;;;20.67;;
76863;SDS011;65834;52.364;9.754;2023-04-23T07:21:21;30.10;;;19.83;;
76863;SDS011;65834;52.364;9.754;2023-04-23T07:23:53;31.23;;;20.53;;
76863;SDS011;65834;52.364;9.754;2023-04-23T07:26:27;29.73;;;19.85;;
76863;SDS011;65834;52.364;9.754;2023-04-23T07:28:57;31.77;;;21.88;;
76863;SDS011;65834;52.364;9.754;2023-04-23T07:31:27;30.97;;;20.27;;
76863;SDS011;65834;52.364;9.754;2023-04-23T07:33:56;31.90;;;21.27;;
76863;SDS011;65834;52.364;9.754;2023-04-23T07:36:26;32.27;;;20.73;;
76863;SDS011;65834;52.364;9.754;2023-04-23T07:38:56;30.47;;;20.50;;
76863;SDS011;65834;52.364;9.754;2023-04-23T07:41:29;30.87;;;20.47;;
76863;SDS011;65834;52.364;9.754;2023-04-23T07:43:58;32.55;;;20.08;;
76863;SDS011;65834;52.364;9.754;2023-04-23T07:46:28;31.07;;;20.37;;
76863;SDS011;65834;52.364;9.754;2023-04-23T07:49:00;30.77;;;20.92;;
76863;SDS011;65834;52.364;9.754;2023-04-23T07:51:30;32.90;;;22.10;;
76863;SDS011;65834;52.364;9.754;2023-04-23T07:53:59;32.50;;;20.80;;
76863;SDS011;65834;52.364;9.754;2023-04-23T07:56:31;31.53;;;21.00;;
76863;SDS011;65834;52.364;9.754;2023-04-23T07:59:02;32.47;;;21.88;;
76863;SDS011;65834;52.364;9.754;2023-04-23T08:01:32;31.03;;;19.80;;
76863;SDS011;65834;52.364;9.754;2023-04-23T08:04:01;29.70;;;19.30;;
76863;SDS011;65834;52.364;9.754;2023-04-23T08:06:31;30.97;;;20.60;;
76863;SDS011;65834;52.364;9.754;2023-04-23T08:09:01;28.97;;;18.00;;
76863;SDS011;65834;52.364;9.754;2023-04-23T08:11:35;30.30;;;18.93;;
76863;SDS011;65834;52.364;9.754;2023-04-23T08:14:05;28.10;;;17.52;;
76863;SDS011;65834;52.364;9.754;2023-04-23T08:16:34;26.33;;;17.23;;
76863;SDS011;65834;52.364;9.754;2023-04-23T08:19:04;27.13;;;16.03;;
76863;SDS011;65834;52.364;9.754;2023-04-23T08:21:34;26.73;;;16.30;;
76863;SDS011;65834;52.364;9.754;2023-04-23T08:24:04;26.97;;;15.87;;
76863;SDS011;65834;52.364;9.754;2023-04-23T08:26:37;28.77;;;18.37;;
76863;SDS011;65834;52.364;9.754;2023-04-23T08:29:06;29.38;;;19.23;;
76863;SDS011;65834;52.364;9.754;2023-04-23T08:31:37;26.03;;;16.43;;
76863;SDS011;65834;52.364;9.754;2023-04-23T08:34:07;29.13;;;17.60;;
76863;SDS011;65834;52.364;9.754;2023-04-23T08:36:36;27.93;;;17.43;;
76863;SDS011;65834;52.364;9.754;2023-04-23T08:39:06;28.70;;;18.47;;
76863;SDS011;65834;52.364;9.754;2023-04-23T08:41:39;28.80;;;17.63;;
76863;SDS011;65834;52.364;9.754;2023-04-23T08:44:11;28.67;;;18.23;;
76863;SDS011;65834;52.364;9.754;2023-04-23T08:46:43;26.60;;;17.17;;
76863;SDS011;65834;52.364;9.754;2023-04-23T08:49:14;27.60;;;16.97;;
76863;SDS011;65834;52.364;9.754;2023-04-23T08:51:47;25.92;;;16.23;;
76863;SDS011;65834;52.364;9.754;2023-04-23T08:54:18;25.00;;;15.75;;
76863;SDS011;65834;52.364;9.754;2023-04-23T08:56:56;24.38;;;14.57;;
76863;SDS011;65834;52.364;9.754;2023-04-23T08:59:28;25.00;;;15.47;;
76863;SDS011;65834;52.364;9.754;2023-04-23T09:01:59;25.10;;;14.40;;
76863;SDS011;65834;52.364;9.754;2023-04-23T09:04:33;24.03;;;13.93;;
76863;SDS011;65834;52.364;9.754;2023-04-23T09:07:04;23.27;;;14.63;;
76863;SDS011;65834;52.364;9.754;2023-04-23T09:09:37;21.90;;;12.50;;
76863;SDS011;65834;52.364;9.754;2023-04-23T09:12:11;21.17;;;13.65;;
76863;SDS011;65834;52.364;9.754;2023-04-23T09:17:10;20.30;;;12.52;;
76863;SDS011;65834;52.364;9.754;2023-04-23T09:19:40;21.70;;;11.55;;
76863;SDS011;65834;52.364;9.754;2023-04-23T09:22:11;20.60;;;12.10;;
76863;SDS011;65834;52.364;9.754;2023-04-23T09:24:41;21.45;;;12.43;;
76863;SDS011;65834;52.364;9.754;2023-04-23T09:27:13;22.38;;;12.30;;
76863;SDS011;65834;52.364;9.754;2023-04-23T09:29:51;19.05;;;10.80;;
76863;SDS011;65834;52.364;9.754;2023-04-23T09:32:29;20.17;;;11.02;;
76863;SDS011;65834;52.364;9.754;2023-04-23T09:35:03;19.25;;;11.60;;
76863;SDS011;65834;52.364;9.754;2023-04-23T09:37:34;19.52;;;11.23;;
76863;SDS011;65834;52.364;9.754;2023-04-23T09:40:06;20.63;;;12.07;;
76863;SDS011;65834;52.364;9.754;2023-04-23T09:42:39;19.77;;;11.02;;
76863;SDS011;65834;52.364;9.754;2023-04-23T09:45:10;20.35;;;11.02;;
76863;SDS011;65834;52.364;9.754;2023-04-23T09:47:46;18.65;;;10.15;;
76863;SDS011;65834;52.364;9.754;2023-04-23T09:50:18;20.00;;;11.65;;
76863;SDS011;65834;52.364;9.754;2023-04-23T09:52:52;18.10;;;10.30;;
76863;SDS011;65834;52.364;9.754;2023-04-23T09:55:27;19.35;;;10.25;;
76863;SDS011;65834;52.364;9.754;2023-04-23T09:58:04;18.20;;;9.40;;
76863;SDS011;65834;52.364;9.754;2023-04-23T10:00:35;17.70;;;9.55;;
76863;SDS011;65834;52.364;9.754;2023-04-23T10:03:06;19.77;;;11.77;;
76863;SDS011;65834;52.364;9.754;2023-04-23T10:05:38;17.35;;;10.20;;
76863;SDS011;65834;52.364;9.754;2023-04-23T10:08:11;18.80;;;9.95;;
76863;SDS011;65834;52.364;9.754;2023-04-23T10:10:43;16.73;;;9.18;;
76863;SDS011;65834;52.364;9.754;2023-04-23T10:13:27;19.45;;;10.25;;
76863;SDS011;65834;52.364;9.754;2023-04-23T10:15:57;17.40;;;9.68;;
76863;SDS011;65834;52.364;9.754;2023-04-23T10:18:43;17.15;;;9.10;;
76863;SDS011;65834;52.364;9.754;2023-04-23T10:21:14;16.95;;;9.13;;
76863;SDS011;65834;52.364;9.754;2023-04-23T10:23:46;19.10;;;9.97;;
76863;SDS011;65834;52.364;9.754;2023-04-23T10:26:18;18.10;;;9.60;;
76863;SDS011;65834;52.364;9.754;2023-04-23T10:28:54;15.82;;;9.13;;
76863;SDS011;65834;52.364;9.754;2023-04-23T10:31:26;17.90;;;10.00;;
76863;SDS011;65834;52.364;9.754;2023-04-23T10:33:57;16.63;;;8.30;;
76863;SDS011;65834;52.364;9.754;2023-04-23T10:36:31;16.17;;;8.55;;
76863;SDS011;65834;52.364;9.754;2023-04-23T10:39:01;16.40;;;8.93;;
76863;SDS011;65834;52.364;9.754;2023-04-23T10:41:35;14.88;;;7.80;;
76863;SDS011;65834;52.364;9.754;2023-04-23T10:46:52;14.85;;;7.00;;
76863;SDS011;65834;52.364;9.754;2023-04-23T10:49:24;15.80;;;7.88;;
76863;SDS011;65834;52.364;9.754;2023-04-23T10:51:57;15.52;;;7.80;;
76863;SDS011;65834;52.364;9.754;2023-04-23T10:54:47;15.60;;;7.75;;
76863;SDS011;65834;52.364;9.754;2023-04-23T10:57:18;15.15;;;7.78;;
76863;SDS011;65834;52.364;9.754;2023-04-23T10:59:54;15.25;;;8.20;;
76863;SDS011;65834;52.364;9.754;2023-04-23T11:02:24;14.55;;;6.93;;
76863;SDS011;65834;52.364;9.754;2023-04-23T11:04:55;14.15;;;7.25;;
76863;SDS011;65834;52.364;9.754;2023-04-23T11:09:59;13.57;;;6.72;;
76863;SDS011;65834;52.364;9.754;2023-04-23T11:12:39;15.18;;;6.65;;
76863;SDS011;65834;52.364;9.754;2023-04-23T11:15:12;14.35;;;6.60;;
76863;SDS011;65834;52.364;9.754;2023-04-23T11:20:28;13.48;;;5.85;;
76863;SDS011;65834;52.364;9.754;2023-04-23T11:22:57;12.98;;;5.93;;
76863;SDS011;65834;52.364;9.754;2023-04-23T11:25:27;13.52;;;5.78;;
76863;SDS011;65834;52.364;9.754;2023-04-23T11:27:57;12.43;;;5.53;;
76863;SDS011;65834;52.364;9.754;2023-04-23T11:30:29;13.15;;;6.20;;
76863;SDS011;65834;52.364;9.754;2023-04-23T11:32:59;13.25;;;5.43;;
76863;SDS011;65834;52.364;9.754;2023-04-23T11:35:30;12.18;;;5.05;;
76863;SDS011;65834;52.364;9.754;2023-04-23T11:38:07;14.52;;;5.97;;
76863;SDS011;65834;52.364;9.754;2023-04-23T11:40:37;12.38;;;5.72;;
76863;SDS011;65834;52.364;9.754;2023-04-23T11:43:08;11.60;;;5.68;;
76863;SDS011;65834;52.364;9.754;2023-04-23T11:45:40;12.35;;;5.93;;
76863;SDS011;65834;52.364;9.754;2023-04-23T11:48:10;11.68;;;5.60;;
76863;SDS011;65834;52.364;9.754;2023-04-23T11:50:39;13.10;;;5.75;;
76863;SDS011;65834;52.364;9.754;2023-04-23T11:53:10;12.02;;;5.53;;
76863;SDS011;65834;52.364;9.754;2023-04-23T11:55:40;12.18;;;5.25;;
76863;SDS011;65834;52.364;9.754;2023-04-23T11:58:11;11.98;;;4.90;;
76863;SDS011;65834;52.364;9.754;2023-04-23T12:00:48;12.52;;;5.03;;
76863;SDS011;65834;52.364;9.754;2023-04-23T12:03:26;10.98;;;4.38;;
76863;SDS011;65834;52.364;9.754;2023-04-23T12:05:56;11.38;;;5.22;;
76863;SDS011;65834;52.364;9.754;2023-04-23T12:08:30;10.25;;;4.38;;
76863;SDS011;65834;52.364;9.754;2023-04-23T12:11:01;10.75;;;5.20;;
76863;SDS011;65834;52.364;9.754;2023-04-23T12:13:32;9.40;;;4.47;;
76863;SDS011;65834;52.364;9.754;2023-04-23T12:16:04;10.00;;;4.13;;
76863;SDS011;65834;52.364;9.754;2023-04-23T12:18:38;10.50;;;4.65;;
76863;SDS011;65834;52.364;9.754;2023-04-23T12:21:11;10.65;;;4.80;;
76863;SDS011;65834;52.364;9.754;2023-04-23T12:23:43;10.98;;;4.88;;
76863;SDS011;65834;52.364;9.754;2023-04-23T12:26:13;10.30;;;3.95;;
76863;SDS011;65834;52.364;9.754;2023-04-23T12:28:48;12.50;;;5.20;;
76863;SDS011;65834;52.364;9.754;2023-04-23T12:31:21;11.88;;;5.35;;
76863;SDS011;65834;52.364;9.754;2023-04-23T12:33:56;11.25;;;5.03;;
76863;SDS011;65834;52.364;9.754;2023-04-23T12:36:27;11.23;;;5.25;;
76863;SDS011;65834;52.364;9.754;2023-04-23T12:41:47;12.25;;;5.20;;
76863;SDS011;65834;52.364;9.754;2023-04-23T12:44:18;12.23;;;4.63;;
76863;SDS011;65834;52.364;9.754;2023-04-23T12:46:52;10.20;;;4.03;;
76863;SDS011;65834;52.364;9.754;2023-04-23T12:49:23;10.80;;;4.15;;
76863;SDS011;65834;52.364;9.754;2023-04-23T12:51:55;8.65;;;4.20;;
76863;SDS011;65834;52.364;9.754;2023-04-23T12:54:27;10.43;;;4.20;;
76863;SDS011;65834;52.364;9.754;2023-04-23T12:59:29;8.68;;;4.20;;
76863;SDS011;65834;52.364;9.754;2023-04-23T13:02:03;9.70;;;3.88;;
76863;SDS011;65834;52.364;9.754;2023-04-23T13:04:34;9.27;;;3.83;;
76863;SDS011;65834;52.364;9.754;2023-04-23T13:07:04;8.32;;;2.92;;
76863;SDS011;65834;52.364;9.754;2023-04-23T13:09:35;8.88;;;3.20;;
76863;SDS011;65834;52.364;9.754;2023-04-23T13:12:04;6.72;;;3.25;;
76863;SDS011;65834;52.364;9.754;2023-04-23T13:14:34;8.27;;;3.30;;
76863;SDS011;65834;52.364;9.754;2023-04-23T13:17:06;6.97;;;3.10;;
76863;SDS011;65834;52.364;9.754;2023-04-23T13:19:36;8.07;;;3.53;;
76863;SDS011;65834;52.364;9.754;2023-04-23T13:22:06;7.38;;;3.03;;
76863;SDS011;65834;52.364;9.754;2023-04-23T13:24:35;9.77;;;3.38;;
76863;SDS011;65834;52.364;9.754;2023-04-23T13:27:05;7.47;;;3.25;;
76863;SDS011;65834;52.364;9.754;2023-04-23T13:29:35;7.90;;;3.10;;
76863;SDS011;65834;52.364;9.754;2023-04-23T13:32:08;7.03;;;3.15;;
76863;SDS011;65834;52.364;9.754;2023-04-23T13:34:38;7.97;;;3.42;;
76863;SDS011;65834;52.364;9.754;2023-04-23T13:37:07;9.45;;;3.17;;
76863;SDS011;65834;52.364;9.754;2023-04-23T13:39:37;9.20;;;3.45;;
76863;SDS011;65834;52.364;9.754;2023-04-23T13:42:08;10.85;;;3.45;;
76863;SDS011;65834;52.364;9.754;2023-04-23T13:44:37;10.60;;;3.97;;
76863;SDS011;65834;52.364;9.754;2023-04-23T13:47:10;7.88;;;3.20;;
76863;SDS011;65834;52.364;9.754;2023-04-23T13:49:39;6.65;;;2.30;;
76863;SDS011;65834;52.364;9.754;2023-04-23T13:52:09;10.23;;;3.17;;
76863;SDS011;65834;52.364;9.754;2023-04-23T13:54:39;7.30;;;2.40;;
76863;SDS011;65834;52.364;9.754;2023-04-23T13:57:08;5.85;;;2.10;;
76863;SDS011;65834;52.364;9.754;2023-04-23T13:59:38;6.50;;;2.15;;
76863;SDS011;65834;52.364;9.754;2023-04-23T14:02:11;5.20;;;1.98;;
76863;SDS011;65834;52.364;9.754;2023-04-23T14:04:41;4.40;;;1.50;;
76863;SDS011;65834;52.364;9.754;2023-04-23T14:07:10;4.38;;;1.60;;
76863;SDS011;65834;52.364;9.754;2023-04-23T14:09:40;6.07;;;1.60;;
76863;SDS011;65834;52.364;9.754;2023-04-23T14:12:12;4.72;;;1.80;;
76863;SDS011;65834;52.364;9.754;2023-04-23T14:14:41;4.43;;;1.73;;
76863;SDS011;65834;52.364;9.754;2023-04-23T14:17:13;4.15;;;1.73;;
76863;SDS011;65834;52.364;9.754;2023-04-23T14:19:43;4.25;;;1.70;;
76863;SDS011;65834;52.364;9.754;2023-04-23T14:22:13;3.95;;;1.73;;
76863;SDS011;65834;52.364;9.754;2023-04-23T14:24:43;4.55;;;2.20;;
76863;SDS011;65834;52.364;9.754;2023-04-23T14:27:14;4.88;;;1.90;;
76863;SDS011;65834;52.364;9.754;2023-04-23T14:29:44;3.95;;;1.73;;
76863;SDS011;65834;52.364;9.754;2023-04-23T14:32:21;4.47;;;1.65;;
76863;SDS011;65834;52.364;9.754;2023-04-23T14:34:51;5.97;;;1.90;;
76863;SDS011;65834;52.364;9.754;2023-04-23T14:37:20;3.67;;;1.83;;
76863;SDS011;65834;52.364;9.754;2023-04-23T14:39:50;5.15;;;1.98;;
76863;SDS011;65834;52.364;9.754;2023-04-23T14:42:20;4.05;;;1.90;;
76863;SDS011;65834;52.364;9.754;2023-04-23T14:44:49;4.35;;;1.77;;
76863;SDS011;65834;52.364;9.754;2023-04-23T14:47:24;5.13;;;1.80;;
76863;SDS011;65834;52.364;9.754;2023-04-23T14:49:54;5.55;;;1.92;;
76863;SDS011;65834;52.364;9.754;2023-04-23T14:52:26;5.43;;;2.00;;
76863;SDS011;65834;52.364;9.754;2023-04-23T14:54:57;5.70;;;2.00;;
76863;SDS011;65834;52.364;9.754;2023-04-23T14:57:26;6.00;;;1.92;;
76863;SDS011;65834;52.364;9.754;2023-04-23T14:59:56;4.05;;;1.70;;
76863;SDS011;65834;52.364;9.754;2023-04-23T15:02:29;5.55;;;1.98;;
76863;SDS011;65834;52.364;9.754;2023-04-23T15:04:59;6.43;;;2.00;;
76863;SDS011;65834;52.364;9.754;2023-04-23T15:07:29;4.72;;;2.20;;
76863;SDS011;65834;52.364;9.754;2023-04-23T15:09:59;2.33;;;1.30;;
76863;SDS011;65834;52.364;9.754;2023-04-23T15:15:25;3.05;;;1.45;;
76863;SDS011;65834;52.364;9.754;2023-04-23T15:18:12;2.97;;;1.63;;